createdAt,value
2022-12-23T00:00:00.183Z,154.52
2022-12-23T00:01:05.756Z,141.65
2022-12-23T00:02:08.748Z,155.27
2022-12-23T00:03:11.594Z,151.50
2022-12-23T00:04:14.067Z,146.48
2022-12-23T00:05:16.580Z,153.38
2022-12-23T00:06:20.390Z,154.77
2022-12-23T00:07:22.719Z,156.35
2022-12-23T00:08:26.278Z,149.20
2022-12-23T00:09:28.699Z,142.85
2022-12-23T00:10:31.098Z,156.77
2022-12-23T00:11:33.965Z,147.40
2022-12-23T00:12:54.996Z,140.75
2022-12-23T00:14:21.104Z,140.45
2022-12-23T00:15:24.302Z,133.82
2022-12-23T00:16:26.796Z,146.40
2022-12-23T00:17:29.299Z,135.02
2022-12-23T00:18:32.406Z,142.38
2022-12-23T00:19:34.848Z,146.85
2022-12-23T00:20:37.230Z,150.60
2022-12-23T00:21:39.598Z,152.32
2022-12-23T00:23:00.781Z,143.00
2022-12-23T00:24:03.243Z,137.35
2022-12-23T00:25:05.954Z,148.77
2022-12-23T00:26:17.553Z,145.10
2022-12-23T00:27:20.724Z,149.10
2022-12-23T00:28:25.400Z,141.18
2022-12-23T00:29:27.887Z,137.63
2022-12-23T00:30:30.401Z,138.52
2022-12-23T00:31:33.012Z,139.55
2022-12-23T00:32:35.936Z,145.70
2022-12-23T00:33:41.196Z,146.15
2022-12-23T00:34:43.527Z,134.52
2022-12-23T00:35:46.668Z,140.18
2022-12-23T00:36:49.304Z,133.63
2022-12-23T00:37:51.769Z,139.00
2022-12-23T00:39:14.310Z,158.15
2022-12-23T00:40:35.459Z,146.90
2022-12-23T00:41:57.095Z,151.48
2022-12-23T00:43:03.127Z,133.38
2022-12-23T00:44:05.893Z,133.88
2022-12-23T00:45:17.827Z,138.23
2022-12-23T00:46:20.493Z,140.73
2022-12-23T00:47:41.129Z,130.73
2022-12-23T00:49:07.118Z,136.60
2022-12-23T00:50:10.198Z,127.60
2022-12-23T00:51:12.643Z,136.63
2022-12-23T00:52:18.360Z,129.27
2022-12-23T00:53:21.633Z,137.88
2022-12-23T00:54:24.074Z,129.20
2022-12-23T00:55:26.721Z,131.48
2022-12-23T00:56:29.300Z,136.90
2022-12-23T00:57:31.745Z,131.23
2022-12-23T00:58:37.593Z,131.25
2022-12-23T00:59:39.942Z,127.30
2022-12-23T01:01:01.226Z,127.22
2022-12-23T01:02:22.791Z,120.10
2022-12-23T01:03:44.285Z,122.18
2022-12-23T01:05:05.339Z,121.72
2022-12-23T01:06:08.117Z,118.55
2022-12-23T01:07:11.068Z,122.15
2022-12-23T01:08:13.611Z,128.73
2022-12-23T01:09:16.733Z,126.90
2022-12-23T01:10:19.234Z,134.27
2022-12-23T01:11:21.661Z,122.47
2022-12-23T01:12:24.112Z,125.28
2022-12-23T01:13:26.561Z,125.22
2022-12-23T01:14:29.945Z,122.70
2022-12-23T01:15:32.884Z,123.35
2022-12-23T01:16:38.800Z,122.78
2022-12-23T01:17:41.408Z,127.35
2022-12-23T01:18:46.730Z,129.95
2022-12-23T01:19:49.220Z,118.07
2022-12-23T01:20:51.913Z,123.57
2022-12-23T01:21:54.696Z,117.05
2022-12-23T01:22:57.263Z,123.30
2022-12-23T01:24:00.423Z,119.57
2022-12-23T01:25:03.001Z,136.80
2022-12-23T01:26:07.835Z,122.78
2022-12-23T01:27:10.704Z,124.43
2022-12-23T01:28:13.213Z,117.32
2022-12-23T01:29:15.594Z,126.07
2022-12-23T01:30:18.232Z,126.18
2022-12-23T01:31:20.870Z,117.95
2022-12-23T01:32:23.262Z,127.93
2022-12-23T01:33:26.006Z,135.10
2022-12-23T01:34:34.286Z,125.50
2022-12-23T01:36:41.547Z,108.53
2022-12-23T01:37:43.852Z,110.40
2022-12-23T01:38:46.520Z,117.68
2022-12-23T01:39:49.108Z,109.53
2022-12-23T01:40:51.486Z,132.85
2022-12-23T01:42:12.350Z,120.75
2022-12-23T01:43:20.081Z,121.78
2022-12-23T01:44:46.914Z,115.68
2022-12-23T01:45:50.213Z,119.95
2022-12-23T01:46:52.879Z,122.45
2022-12-23T01:48:03.789Z,117.85
2022-12-23T01:49:06.107Z,121.28
2022-12-23T01:50:45.061Z,122.57
2022-12-23T01:51:47.614Z,123.65
2022-12-23T01:53:06.833Z,117.55
2022-12-23T01:54:09.925Z,115.43
2022-12-23T01:55:14.178Z,113.75
2022-12-23T01:57:29.844Z,104.03
2022-12-23T01:58:44.479Z,109.18
2022-12-23T02:01:27.051Z,99.22
2022-12-23T02:02:49.316Z,109.03
2022-12-23T02:03:57.882Z,112.68
2022-12-23T02:05:00.710Z,111.50
2022-12-23T02:06:23.029Z,114.25
2022-12-23T02:07:45.397Z,114.97
2022-12-23T02:09:06.507Z,118.90
2022-12-23T02:10:09.582Z,117.53
2022-12-23T02:11:53.783Z,126.55
2022-12-23T02:13:19.091Z,109.68
2022-12-23T02:15:17.822Z,110.28
2022-12-23T02:16:20.995Z,110.40
2022-12-23T02:17:26.466Z,108.75
2022-12-23T02:18:45.826Z,107.22
2022-12-23T02:19:54.182Z,110.28
2022-12-23T02:21:20.830Z,126.03
2022-12-23T02:22:38.904Z,116.20
2022-12-23T02:23:44.290Z,113.38
2022-12-23T02:25:14.597Z,121.85
2022-12-23T02:26:54.697Z,126.28
2022-12-23T02:28:15.822Z,102.68
2022-12-23T02:29:31.869Z,112.90
2022-12-23T02:30:43.285Z,120.57
2022-12-23T02:31:58.751Z,112.72
2022-12-23T02:33:35.342Z,122.68
2022-12-23T02:35:01.199Z,115.22
2022-12-23T02:36:18.756Z,114.15
2022-12-23T02:37:27.537Z,114.15
2022-12-23T02:38:39.215Z,124.22
2022-12-23T02:39:57.338Z,121.32
2022-12-23T02:41:08.534Z,125.25
2022-12-23T02:42:18.332Z,126.03
2022-12-23T02:43:47.094Z,134.30
2022-12-23T02:45:13.798Z,118.32
2022-12-23T02:46:36.631Z,109.05
2022-12-23T02:47:51.323Z,111.10
2022-12-23T02:48:53.583Z,119.93
2022-12-23T02:49:59.271Z,118.43
2022-12-23T02:51:04.274Z,119.95
2022-12-23T02:52:13.440Z,114.82
2022-12-23T02:53:30.746Z,114.07
2022-12-23T02:54:39.332Z,124.75
2022-12-23T02:55:45.152Z,111.00
2022-12-23T02:56:51.225Z,120.10
2022-12-23T02:57:56.087Z,122.80
2022-12-23T02:59:23.580Z,129.32
2022-12-23T03:00:26.108Z,112.85
2022-12-23T03:01:32.155Z,127.63
2022-12-23T03:02:38.733Z,119.43
2022-12-23T03:03:42.762Z,117.32
2022-12-23T03:04:45.123Z,125.05
2022-12-23T03:05:50.049Z,122.05
2022-12-23T03:06:54.741Z,119.95
2022-12-23T03:08:02.802Z,125.57
2022-12-23T03:09:06.722Z,121.43
2022-12-23T03:10:20.956Z,127.00
2022-12-23T03:11:40.398Z,120.72
2022-12-23T03:13:26.202Z,107.32
2022-12-23T03:14:31.488Z,111.85
2022-12-23T03:15:47.436Z,107.70
2022-12-23T03:16:52.430Z,121.80
2022-12-23T03:18:05.001Z,113.57
2022-12-23T03:19:32.548Z,123.50
2022-12-23T03:20:47.950Z,116.88
2022-12-23T03:22:08.787Z,106.93
2022-12-23T03:23:20.229Z,115.05
2022-12-23T03:24:45.024Z,119.10
2022-12-23T03:26:12.584Z,118.18
2022-12-23T03:27:43.433Z,114.25
2022-12-23T03:29:09.008Z,108.85
2022-12-23T03:30:15.286Z,106.85
2022-12-23T03:31:27.487Z,115.00
2022-12-23T03:32:35.591Z,111.82
2022-12-23T03:33:42.626Z,118.88
2022-12-23T03:34:50.298Z,120.78
2022-12-23T03:35:58.452Z,114.40
2022-12-23T03:37:04.819Z,111.18
2022-12-23T03:38:10.436Z,115.68
2022-12-23T03:39:17.653Z,117.10
2022-12-23T03:40:25.369Z,123.90
2022-12-23T03:41:39.954Z,113.82
2022-12-23T03:42:46.766Z,106.50
2022-12-23T03:44:13.738Z,115.35
2022-12-23T03:45:39.283Z,116.53
2022-12-23T03:47:08.914Z,112.60
2022-12-23T03:48:29.081Z,95.43
2022-12-23T03:49:36.016Z,105.85
2022-12-23T03:50:40.269Z,106.78
2022-12-23T03:51:51.400Z,108.50
2022-12-23T03:53:01.487Z,112.32
2022-12-23T03:54:10.860Z,109.88
2022-12-23T03:55:22.420Z,122.80
2022-12-23T03:56:31.190Z,117.20
2022-12-23T03:57:45.076Z,120.75
2022-12-23T03:58:53.823Z,110.80
2022-12-23T03:59:56.462Z,117.03
2022-12-23T04:01:22.754Z,116.85
2022-12-23T04:02:53.429Z,106.43
2022-12-23T04:04:17.932Z,108.15
2022-12-23T04:05:23.487Z,109.03
2022-12-23T04:06:32.042Z,119.93
2022-12-23T04:07:53.137Z,107.53
2022-12-23T04:08:57.929Z,117.65
2022-12-23T04:10:00.980Z,105.55
2022-12-23T04:11:04.031Z,123.75
2022-12-23T04:12:08.130Z,117.68
2022-12-23T04:13:10.751Z,120.00
2022-12-23T04:14:18.524Z,116.13
2022-12-23T04:15:26.056Z,118.95
2022-12-23T04:16:29.563Z,112.78
2022-12-23T04:17:33.093Z,111.38
2022-12-23T04:18:36.949Z,131.80
2022-12-23T04:19:39.396Z,120.75
2022-12-23T04:20:42.015Z,122.97
2022-12-23T04:21:44.475Z,114.43
2022-12-23T04:22:47.072Z,124.25
2022-12-23T04:23:49.544Z,120.97
2022-12-23T04:24:51.956Z,122.43
2022-12-23T04:25:54.391Z,113.85
2022-12-23T04:26:56.809Z,110.78
2022-12-23T04:27:59.255Z,123.45
2022-12-23T04:29:02.170Z,113.43
2022-12-23T04:30:06.116Z,118.43
2022-12-23T04:31:08.594Z,115.30
2022-12-23T04:32:11.531Z,121.30
2022-12-23T04:33:13.899Z,126.97
2022-12-23T04:34:16.381Z,129.82
2022-12-23T04:35:19.011Z,119.50
2022-12-23T04:36:21.600Z,118.35
2022-12-23T04:37:23.947Z,106.00
2022-12-23T04:38:28.439Z,107.38
2022-12-23T04:39:30.902Z,122.53
2022-12-23T04:40:33.389Z,105.03
2022-12-23T04:41:35.710Z,109.45
2022-12-23T04:42:38.104Z,118.40
2022-12-23T04:43:40.690Z,118.35
2022-12-23T04:44:43.171Z,111.00
2022-12-23T04:45:51.598Z,111.72
2022-12-23T04:46:54.008Z,117.72
2022-12-23T04:47:56.492Z,110.82
2022-12-23T04:49:00.802Z,133.38
2022-12-23T04:50:03.916Z,117.47
2022-12-23T04:51:09.853Z,106.70
2022-12-23T04:52:12.366Z,114.93
2022-12-23T04:53:14.867Z,121.88
2022-12-23T04:54:17.456Z,125.10
2022-12-23T04:55:19.931Z,127.65
2022-12-23T04:56:23.127Z,126.60
2022-12-23T04:57:25.825Z,125.55
2022-12-23T04:58:32.465Z,134.32
2022-12-23T04:59:34.964Z,136.77
2022-12-23T05:00:40.068Z,122.85
2022-12-23T05:01:43.444Z,121.10
2022-12-23T05:02:46.117Z,127.90
2022-12-23T05:03:48.567Z,128.75
2022-12-23T05:04:50.920Z,125.32
2022-12-23T05:05:53.269Z,125.57
2022-12-23T05:06:55.729Z,138.20
2022-12-23T05:08:04.404Z,132.50
2022-12-23T05:09:07.094Z,131.25
2022-12-23T05:10:10.634Z,145.27
2022-12-23T05:11:13.458Z,140.27
2022-12-23T05:12:15.837Z,131.55
2022-12-23T05:13:18.313Z,142.23
2022-12-23T05:14:21.010Z,150.90
2022-12-23T05:15:23.453Z,146.80
2022-12-23T05:16:25.861Z,170.20
2022-12-23T05:17:28.444Z,150.73
2022-12-23T05:18:35.217Z,163.32
2022-12-23T05:19:37.752Z,160.57
2022-12-23T05:20:40.940Z,175.98
2022-12-23T05:21:43.704Z,207.70
2022-12-23T05:22:46.079Z,201.35
2022-12-23T05:23:48.479Z,171.90
2022-12-23T05:24:50.930Z,175.13
2022-12-23T05:25:54.406Z,190.63
2022-12-23T05:26:59.978Z,258.65
2022-12-23T05:28:04.187Z,274.55
2022-12-23T05:29:07.634Z,259.88
2022-12-23T05:30:10.717Z,201.15
2022-12-23T05:31:17.633Z,207.55
2022-12-23T05:32:20.239Z,194.30
2022-12-23T05:33:22.614Z,207.25
2022-12-23T05:34:25.103Z,217.13
2022-12-23T05:35:28.679Z,204.68
2022-12-23T05:36:31.182Z,209.23
2022-12-23T05:37:33.724Z,191.48
2022-12-23T05:38:37.467Z,183.10
2022-12-23T05:39:40.115Z,189.55
2022-12-23T05:40:42.519Z,217.13
2022-12-23T05:41:46.020Z,198.10
2022-12-23T05:42:48.484Z,174.13
2022-12-23T05:43:50.942Z,174.20
2022-12-23T05:44:53.429Z,158.48
2022-12-23T05:45:55.955Z,198.23
2022-12-23T05:46:58.374Z,185.43
2022-12-23T05:48:01.015Z,191.52
2022-12-23T05:49:03.760Z,181.07
2022-12-23T05:50:06.915Z,183.98
2022-12-23T05:51:09.417Z,173.50
2022-12-23T05:52:11.862Z,182.65
2022-12-23T05:53:14.338Z,179.65
2022-12-23T05:54:16.755Z,174.70
2022-12-23T05:55:19.139Z,175.23
2022-12-23T05:56:21.666Z,189.75
2022-12-23T05:57:24.149Z,162.52
2022-12-23T05:58:28.252Z,183.43
2022-12-23T05:59:32.813Z,181.05
2022-12-23T06:00:37.109Z,195.32
2022-12-23T06:01:39.701Z,172.10
2022-12-23T06:02:43.085Z,187.25
2022-12-23T06:03:50.679Z,180.10
2022-12-23T06:04:53.478Z,165.15
2022-12-23T06:05:56.426Z,169.90
2022-12-23T06:06:59.243Z,161.68
2022-12-23T06:08:01.745Z,156.65
2022-12-23T06:09:05.556Z,171.88
2022-12-23T06:10:10.030Z,195.75
2022-12-23T06:11:13.348Z,262.17
2022-12-23T06:12:15.800Z,192.95
2022-12-23T06:13:18.267Z,214.95
2022-12-23T06:14:26.883Z,211.13
2022-12-23T06:15:31.195Z,175.25
2022-12-23T06:16:34.190Z,187.57
2022-12-23T06:17:36.877Z,192.18
2022-12-23T06:18:41.377Z,178.38
2022-12-23T06:19:44.233Z,195.07
2022-12-23T06:20:47.798Z,171.18
2022-12-23T06:21:52.361Z,166.52
2022-12-23T06:22:59.363Z,199.65
2022-12-23T06:24:03.753Z,196.35
2022-12-23T06:25:06.681Z,193.90
2022-12-23T06:26:09.097Z,188.38
2022-12-23T06:27:11.478Z,210.88
2022-12-23T06:28:23.160Z,185.63
2022-12-23T06:29:25.763Z,209.90
2022-12-23T06:30:28.252Z,207.07
2022-12-23T06:31:30.819Z,251.35
2022-12-23T06:32:38.240Z,170.30
2022-12-23T06:33:41.073Z,181.20
2022-12-23T06:34:43.701Z,196.02
2022-12-23T06:35:46.121Z,211.40
2022-12-23T06:36:48.971Z,206.35
2022-12-23T06:37:53.582Z,201.50
2022-12-23T06:38:58.044Z,167.48
2022-12-23T06:40:00.666Z,210.88
2022-12-23T06:41:03.297Z,182.32
2022-12-23T06:42:06.335Z,237.98
2022-12-23T06:43:10.764Z,184.23
2022-12-23T06:44:13.301Z,241.10
2022-12-23T06:45:15.752Z,231.82
2022-12-23T06:46:18.150Z,261.33
2022-12-23T06:47:20.787Z,192.05
2022-12-23T06:48:23.713Z,200.45
2022-12-23T06:49:26.441Z,251.02
2022-12-23T06:50:28.890Z,184.95
2022-12-23T06:51:31.743Z,201.25
2022-12-23T06:52:34.277Z,283.55
2022-12-23T06:53:37.085Z,200.98
2022-12-23T06:54:39.776Z,373.77
2022-12-23T06:55:42.204Z,211.95
2022-12-23T06:56:44.593Z,205.73
2022-12-23T06:57:46.997Z,203.63
2022-12-23T06:58:52.658Z,235.65
2022-12-23T07:00:57.479Z,203.38
2022-12-23T07:02:00.130Z,242.20
2022-12-23T07:03:02.778Z,227.02
2022-12-23T07:04:05.606Z,263.65
2022-12-23T07:05:08.754Z,366.88
2022-12-23T07:06:11.281Z,337.50
2022-12-23T07:07:13.700Z,365.17
2022-12-23T07:08:16.807Z,219.38
2022-12-23T07:09:19.252Z,261.30
2022-12-23T07:10:21.717Z,272.45
2022-12-23T07:11:24.536Z,313.45
2022-12-23T07:12:27.243Z,197.63
2022-12-23T07:13:30.030Z,347.70
2022-12-23T07:14:32.421Z,440.55
2022-12-23T07:15:35.839Z,288.75
2022-12-23T07:16:38.715Z,315.38
2022-12-23T07:17:41.397Z,310.48
2022-12-23T07:18:44.306Z,301.35
2022-12-23T07:19:46.777Z,288.58
2022-12-23T07:20:50.613Z,289.90
2022-12-23T07:21:53.211Z,190.95
2022-12-23T07:22:57.277Z,227.27
2022-12-23T07:23:59.812Z,197.40
2022-12-23T07:25:02.232Z,191.05
2022-12-23T07:26:04.865Z,207.00
2022-12-23T07:27:07.537Z,194.50
2022-12-23T07:28:09.973Z,213.20
2022-12-23T07:29:12.477Z,288.50
2022-12-23T07:30:15.214Z,191.13
2022-12-23T07:31:17.891Z,215.85
2022-12-23T07:32:20.300Z,332.48
2022-12-23T07:33:22.828Z,323.17
2022-12-23T07:34:25.281Z,348.60
2022-12-23T07:35:29.005Z,384.60
2022-12-23T07:37:34.406Z,356.08
2022-12-23T07:38:37.541Z,346.30
2022-12-23T07:39:40.094Z,338.23
2022-12-23T07:40:42.588Z,380.60
2022-12-23T07:41:44.931Z,205.95
2022-12-23T07:42:50.163Z,217.95
2022-12-23T07:43:52.459Z,241.77
2022-12-23T07:44:55.016Z,286.30
2022-12-23T07:46:00.414Z,438.20
2022-12-23T07:47:03.924Z,439.52
2022-12-23T07:48:06.857Z,392.27
2022-12-23T07:49:10.286Z,281.83
2022-12-23T07:50:13.272Z,270.35
2022-12-23T07:51:16.131Z,277.38
2022-12-23T07:52:18.705Z,284.77
2022-12-23T07:53:21.028Z,396.98
2022-12-23T07:54:23.441Z,241.20
2022-12-23T07:55:25.916Z,326.55
2022-12-23T07:56:29.488Z,364.30
2022-12-23T07:57:38.075Z,367.13
2022-12-23T07:58:49.963Z,412.05
2022-12-23T07:59:52.996Z,326.42
2022-12-23T08:01:05.821Z,342.13
2022-12-23T08:02:10.820Z,379.83
2022-12-23T08:03:13.828Z,347.27
2022-12-23T08:04:16.416Z,235.55
2022-12-23T08:05:19.111Z,234.68
2022-12-23T08:06:21.625Z,379.42
2022-12-23T08:07:23.980Z,293.23
2022-12-23T08:08:26.650Z,248.90
2022-12-23T08:09:29.367Z,225.68
2022-12-23T08:10:31.890Z,436.98
2022-12-23T08:11:34.451Z,278.92
2022-12-23T08:12:36.893Z,321.65
2022-12-23T08:13:41.044Z,268.25
2022-12-23T08:14:43.399Z,226.18
2022-12-23T08:15:48.643Z,302.08
2022-12-23T08:16:51.184Z,388.45
2022-12-23T08:17:56.149Z,410.67
2022-12-23T08:18:58.878Z,453.50
2022-12-23T08:20:08.656Z,251.68
2022-12-23T08:21:11.267Z,306.10
2022-12-23T08:22:13.987Z,319.45
2022-12-23T08:23:21.385Z,271.90
2022-12-23T08:25:29.536Z,189.50
2022-12-23T08:26:32.935Z,305.45
2022-12-23T08:27:35.991Z,184.73
2022-12-23T08:30:01.398Z,239.30
2022-12-23T08:31:10.040Z,195.38
2022-12-23T08:32:12.595Z,245.38
2022-12-23T08:33:14.962Z,294.85
2022-12-23T08:34:17.701Z,254.35
2022-12-23T08:35:20.115Z,210.82
2022-12-23T08:36:28.930Z,266.77
2022-12-23T08:37:31.230Z,346.20
2022-12-23T08:38:37.305Z,317.83
2022-12-23T08:39:39.601Z,261.40
2022-12-23T08:40:42.260Z,210.95
2022-12-23T08:41:47.586Z,323.23
2022-12-23T08:42:56.327Z,423.35
2022-12-23T08:43:58.910Z,235.00
2022-12-23T08:45:01.361Z,368.17
2022-12-23T08:46:04.501Z,439.38
2022-12-23T08:47:07.111Z,378.08
2022-12-23T08:48:09.858Z,270.48
2022-12-23T08:49:12.881Z,440.33
2022-12-23T08:50:16.024Z,418.17
2022-12-23T08:51:20.820Z,400.13
2022-12-23T08:52:23.357Z,310.60
2022-12-23T08:53:25.687Z,280.42
2022-12-23T08:54:29.621Z,343.80
2022-12-23T08:55:40.380Z,249.98
2022-12-23T08:56:43.466Z,251.25
2022-12-23T08:57:45.862Z,462.05
2022-12-23T08:58:50.292Z,485.13
2022-12-23T08:59:53.252Z,420.17
2022-12-23T09:00:55.872Z,408.90
2022-12-23T09:01:59.959Z,452.38
2022-12-23T09:03:03.763Z,367.55
2022-12-23T09:04:07.676Z,273.58
2022-12-23T09:05:10.279Z,376.85
2022-12-23T09:06:29.913Z,406.00
2022-12-23T09:07:32.776Z,329.00
2022-12-23T09:08:38.903Z,405.38
2022-12-23T09:09:41.392Z,299.15
2022-12-23T09:10:44.719Z,403.15
2022-12-23T09:11:49.948Z,343.60
2022-12-23T09:12:52.347Z,288.40
2022-12-23T09:13:58.355Z,404.75
2022-12-23T09:15:03.363Z,273.90
2022-12-23T09:16:06.609Z,374.35
2022-12-23T09:17:09.031Z,377.83
2022-12-23T09:18:12.605Z,330.00
2022-12-23T09:19:16.165Z,247.48
2022-12-23T09:20:18.704Z,254.90
2022-12-23T09:21:23.615Z,256.50
2022-12-23T09:22:26.096Z,335.73
2022-12-23T09:23:29.188Z,338.13
2022-12-23T09:24:35.350Z,253.43
2022-12-23T09:25:38.543Z,320.42
2022-12-23T09:26:44.380Z,293.45
2022-12-23T09:27:46.865Z,311.48
2022-12-23T09:28:54.708Z,261.20
2022-12-23T09:30:02.060Z,289.02
2022-12-23T09:31:12.495Z,260.88
2022-12-23T09:32:18.376Z,241.57
2022-12-23T09:33:28.368Z,245.57
2022-12-23T09:34:30.940Z,248.13
2022-12-23T09:35:37.777Z,292.88
2022-12-23T09:36:40.673Z,303.40
2022-12-23T09:37:43.489Z,385.65
2022-12-23T09:38:46.023Z,282.02
2022-12-23T09:39:48.827Z,342.13
2022-12-23T09:40:54.090Z,255.98
2022-12-23T09:42:01.999Z,244.25
2022-12-23T09:43:04.597Z,379.65
2022-12-23T09:44:27.384Z,349.70
2022-12-23T09:45:59.210Z,220.55
2022-12-23T09:47:05.927Z,284.80
2022-12-23T09:48:28.646Z,223.35
2022-12-23T09:49:31.469Z,219.23
2022-12-23T09:50:35.037Z,219.52
2022-12-23T09:51:37.546Z,309.85
2022-12-23T09:52:54.657Z,257.67
2022-12-23T09:54:26.882Z,284.85
2022-12-23T09:55:44.231Z,214.52
2022-12-23T09:57:00.734Z,359.15
2022-12-23T09:58:11.020Z,213.65
2022-12-23T09:59:51.463Z,226.57
2022-12-23T10:01:21.466Z,312.08
2022-12-23T10:02:43.410Z,396.23
2022-12-23T10:04:12.821Z,252.93
2022-12-23T10:05:21.180Z,243.18
2022-12-23T10:06:27.803Z,213.38
2022-12-23T10:08:04.295Z,223.82
2022-12-23T10:09:09.523Z,218.73
2022-12-23T10:10:32.454Z,319.65
2022-12-23T10:11:47.201Z,288.00
2022-12-23T10:12:58.433Z,235.40
2022-12-23T10:14:16.397Z,214.82
2022-12-23T10:15:28.388Z,258.83
2022-12-23T10:16:38.625Z,293.73
2022-12-23T10:17:43.720Z,214.10
2022-12-23T10:19:01.868Z,236.02
2022-12-23T10:20:07.289Z,269.55
2022-12-23T10:21:20.879Z,258.23
2022-12-23T10:22:43.269Z,340.80
2022-12-23T10:23:51.355Z,317.02
2022-12-23T10:24:59.239Z,227.25
2022-12-23T10:26:08.021Z,229.15
2022-12-23T10:27:33.346Z,262.05
2022-12-23T10:28:36.831Z,292.98
2022-12-23T10:29:44.282Z,281.30
2022-12-23T10:32:37.726Z,310.63
2022-12-23T10:33:51.943Z,345.52
2022-12-23T10:35:30.011Z,287.92
2022-12-23T10:36:45.764Z,253.02
2022-12-23T10:37:58.431Z,276.95
2022-12-23T10:39:36.763Z,264.77
2022-12-23T10:40:52.800Z,227.02
2022-12-23T10:42:22.712Z,245.75
2022-12-23T10:44:02.545Z,231.90
2022-12-23T10:45:39.140Z,276.77
2022-12-23T10:47:00.501Z,245.30
2022-12-23T10:48:38.568Z,218.43
2022-12-23T10:49:41.008Z,252.13
2022-12-23T10:51:04.091Z,270.63
2022-12-23T10:52:20.882Z,236.80
2022-12-23T10:53:44.712Z,215.15
2022-12-23T10:54:48.475Z,238.85
2022-12-23T10:55:52.380Z,274.45
2022-12-23T10:56:55.359Z,328.23
2022-12-23T10:59:33.844Z,320.77
2022-12-23T11:00:52.331Z,292.92
2022-12-23T11:02:24.183Z,270.77
2022-12-23T11:03:31.006Z,259.60
2022-12-23T11:04:39.073Z,245.18
2022-12-23T11:05:42.370Z,316.80
2022-12-23T11:06:52.810Z,344.50
2022-12-23T11:08:03.337Z,263.05
2022-12-23T11:09:07.410Z,312.20
2022-12-23T11:10:21.929Z,314.42
2022-12-23T11:11:24.336Z,292.25
2022-12-23T11:12:42.513Z,253.00
2022-12-23T11:13:47.003Z,300.25
2022-12-23T11:14:57.337Z,296.10
2022-12-23T11:16:14.116Z,309.33
2022-12-23T11:17:31.388Z,280.38
2022-12-23T11:18:40.352Z,232.02
2022-12-23T11:19:45.299Z,235.00
2022-12-23T11:21:05.775Z,254.45
2022-12-23T11:22:22.435Z,247.02
2022-12-23T11:23:25.961Z,251.20
2022-12-23T11:24:38.048Z,219.10
2022-12-23T11:25:44.248Z,222.60
2022-12-23T11:27:08.296Z,233.07
2022-12-23T11:28:10.672Z,250.38
2022-12-23T11:29:21.572Z,260.27
2022-12-23T11:30:25.201Z,250.18
2022-12-23T11:32:38.428Z,196.70
2022-12-23T11:33:54.976Z,238.73
2022-12-23T11:34:57.520Z,254.98
2022-12-23T11:36:24.118Z,244.80
2022-12-23T11:37:40.939Z,226.15
2022-12-23T11:38:56.024Z,215.48
2022-12-23T11:39:58.886Z,280.77
2022-12-23T11:41:07.939Z,242.05
2022-12-23T11:42:17.844Z,232.88
2022-12-23T11:43:23.476Z,275.92
2022-12-23T11:44:36.257Z,219.73
2022-12-23T11:45:45.194Z,266.30
2022-12-23T11:46:54.015Z,247.85
2022-12-23T11:48:01.007Z,257.88
2022-12-23T11:49:19.119Z,303.70
2022-12-23T11:50:51.054Z,261.65
2022-12-23T11:52:31.242Z,228.70
2022-12-23T11:53:35.205Z,220.98
2022-12-23T11:55:14.263Z,248.05
2022-12-23T11:56:21.797Z,218.43
2022-12-23T11:57:46.521Z,230.40
2022-12-23T11:59:07.891Z,175.20
2022-12-23T12:00:21.356Z,178.65
2022-12-23T12:01:25.468Z,225.18
2022-12-23T12:03:44.234Z,208.73
2022-12-23T12:04:58.370Z,212.70
2022-12-23T12:06:16.035Z,176.20
2022-12-23T12:07:21.880Z,198.48
2022-12-23T12:08:37.591Z,236.68
2022-12-23T12:09:43.619Z,218.65
2022-12-23T12:10:46.766Z,232.32
2022-12-23T12:11:53.093Z,257.75
2022-12-23T12:12:58.495Z,249.25
2022-12-23T12:14:04.075Z,196.45
2022-12-23T12:15:08.773Z,315.15
2022-12-23T12:17:09.541Z,201.48
2022-12-23T12:18:19.635Z,207.43
2022-12-23T12:19:31.838Z,231.60
2022-12-23T12:20:40.105Z,258.65
2022-12-23T12:21:44.924Z,250.18
2022-12-23T12:22:56.700Z,306.80
2022-12-23T12:24:18.203Z,200.80
2022-12-23T12:25:40.793Z,215.30
2022-12-23T12:26:47.857Z,255.20
2022-12-23T12:28:03.153Z,244.35
2022-12-23T12:29:16.691Z,261.80
2022-12-23T12:30:35.971Z,245.25
2022-12-23T12:31:38.819Z,308.23
2022-12-23T12:33:01.301Z,311.15
2022-12-23T12:34:39.216Z,292.48
2022-12-23T12:36:09.487Z,252.02
2022-12-23T12:37:17.961Z,247.43
2022-12-23T12:38:33.893Z,267.90
2022-12-23T12:39:46.160Z,271.08
2022-12-23T12:40:55.924Z,264.25
2022-12-23T12:42:10.093Z,268.33
2022-12-23T12:43:24.543Z,288.95
2022-12-23T12:44:39.127Z,239.00
2022-12-23T12:45:50.703Z,314.63
2022-12-23T12:47:27.950Z,244.68
2022-12-23T12:49:00.145Z,213.32
2022-12-23T12:50:17.927Z,212.13
2022-12-23T12:51:40.970Z,247.85
2022-12-23T12:52:46.529Z,248.57
2022-12-23T12:54:12.997Z,248.82
2022-12-23T12:55:23.855Z,272.13
2022-12-23T12:56:43.985Z,244.68
2022-12-23T12:57:47.159Z,243.90
2022-12-23T12:58:51.914Z,242.48
2022-12-23T13:00:03.599Z,245.95
2022-12-23T13:01:39.034Z,255.88
2022-12-23T13:03:03.167Z,269.45
2022-12-23T13:04:24.010Z,240.40
2022-12-23T13:05:54.102Z,294.98
2022-12-23T13:07:04.916Z,237.93
2022-12-23T13:08:15.102Z,226.25
2022-12-23T13:09:30.438Z,253.23
2022-12-23T13:10:48.420Z,237.55
2022-12-23T13:12:21.801Z,277.80
2022-12-23T13:13:41.698Z,259.30
2022-12-23T13:14:58.220Z,308.98
2022-12-23T13:16:06.720Z,320.88
2022-12-23T13:17:27.591Z,337.55
2022-12-23T13:18:45.058Z,304.73
2022-12-23T13:19:55.387Z,238.43
2022-12-23T13:21:24.477Z,230.25
2022-12-23T13:22:33.642Z,294.02
2022-12-23T13:23:46.581Z,256.30
2022-12-23T13:25:02.927Z,301.38
2022-12-23T13:26:23.656Z,252.80
2022-12-23T13:27:29.276Z,264.85
2022-12-23T13:29:04.755Z,361.83
2022-12-23T13:30:13.226Z,253.95
2022-12-23T13:31:22.065Z,309.55
2022-12-23T13:32:46.068Z,374.42
2022-12-23T13:34:04.057Z,344.00
2022-12-23T13:35:12.603Z,329.52
2022-12-23T13:36:32.521Z,336.20
2022-12-23T13:37:44.053Z,420.65
2022-12-23T13:38:58.750Z,310.70
2022-12-23T13:40:04.248Z,339.92
2022-12-23T13:41:22.331Z,363.88
2022-12-23T13:42:32.817Z,318.80
2022-12-23T13:44:50.175Z,346.52
2022-12-23T13:45:54.470Z,336.77
2022-12-23T13:47:12.205Z,397.45
2022-12-23T13:48:43.601Z,347.67
2022-12-23T13:49:53.181Z,320.17
2022-12-23T13:51:01.121Z,480.50
2022-12-23T13:52:20.304Z,478.05
2022-12-23T13:54:04.817Z,431.42
2022-12-23T13:55:07.899Z,340.92
2022-12-23T13:56:29.193Z,299.17
2022-12-23T13:57:45.424Z,508.77
2022-12-23T13:58:51.015Z,472.48
2022-12-23T14:00:05.421Z,377.48
2022-12-23T14:01:15.195Z,445.40
2022-12-23T14:02:41.125Z,382.33
2022-12-23T14:03:44.631Z,502.08
2022-12-23T14:04:56.052Z,414.77
2022-12-23T14:05:58.457Z,423.15
2022-12-23T14:07:17.175Z,372.40
2022-12-23T14:08:20.430Z,456.67
2022-12-23T14:09:39.237Z,404.40
2022-12-23T14:11:08.942Z,314.80
2022-12-23T14:12:23.819Z,420.48
2022-12-23T14:13:34.330Z,554.17
2022-12-23T14:14:43.063Z,480.83
2022-12-23T14:16:22.112Z,585.75
2022-12-23T14:17:44.872Z,521.83
2022-12-23T14:19:18.788Z,491.65
2022-12-23T14:20:37.327Z,397.60
2022-12-23T14:22:07.557Z,299.33
2022-12-23T14:23:12.756Z,409.02
2022-12-23T14:24:37.273Z,469.60
2022-12-23T14:25:59.286Z,493.15
2022-12-23T14:27:32.746Z,396.55
2022-12-23T14:28:36.341Z,336.67
2022-12-23T14:29:39.163Z,555.15
2022-12-23T14:30:46.129Z,498.42
2022-12-23T14:31:56.231Z,457.80
2022-12-23T14:33:01.260Z,481.70
2022-12-23T14:34:31.497Z,498.23
2022-12-23T14:35:40.231Z,486.90
2022-12-23T14:37:23.934Z,384.48
2022-12-23T14:38:35.314Z,292.70